Time;durP1;ratioP1;P1;durP2;ratioP2;P2;SDS_P1;SDS_P2;PMS_P1;PMS_P2;Temp;Humidity;BMP_temperature;BMP_pressure;BME280_temperature;BME280_humidity;BME280_pressure;Samples;Min_cycle;Max_cycle;Signal;HPM_P1;HPM_P2
2022/12/21 00:00:26;;;;;;;38.80;16.67;;;;;;;;;;5048113;28;20044;-73
2022/12/21 00:02:52;;;;;;;33.75;12.35;;;;;;;;;;5033341;28;20112;-72
2022/12/21 00:05:18;;;;;;;26.95;11.23;;;;;;;;;;5044102;28;20515;-70
2022/12/21 00:07:44;;;;;;;27.85;10.32;;;;;;;;;;5040204;28;20025;-73
2022/12/21 00:10:10;;;;;;;37.38;11.88;;;;;;;;;;5035879;28;20908;-72
2022/12/21 00:12:36;;;;;;;45.72;15.30;;;;;;;;;;5037100;28;20032;-72
2022/12/21 00:15:02;;;;;;;41.78;20.23;;;;;;;;;;5029420;28;20030;-72
2022/12/21 00:17:28;;;;;;;58.22;21.35;;;;;;;;;;5038131;28;20037;-73
2022/12/21 00:19:54;;;;;;;54.08;22.50;;;;;;;;;;5036911;28;20440;-72
2022/12/21 00:22:20;;;;;;;39.08;17.17;;;;;;;;;;5032454;28;20037;-73
2022/12/21 00:24:46;;;;;;;54.17;20.50;;;;;;;;;;5033973;28;20032;-72
2022/12/21 00:27:12;;;;;;;49.13;17.55;;;;;;;;;;5033713;28;20027;-72
2022/12/21 00:29:38;;;;;;;48.97;18.95;;;;;;;;;;5037933;28;20087;-72
2022/12/21 00:32:04;;;;;;;38.38;17.40;;;;;;;;;;5033299;28;20529;-71
2022/12/21 00:34:30;;;;;;;41.85;15.52;;;;;;;;;;5043187;28;20037;-72
2022/12/21 00:36:57;;;;;;;33.25;12.80;;;;;;;;;;5034056;28;20117;-72
2022/12/21 00:39:23;;;;;;;32.78;11.00;;;;;;;;;;5032461;28;20021;-72
2022/12/21 00:41:49;;;;;;;35.67;11.70;;;;;;;;;;5039131;28;20032;-70
2022/12/21 00:44:15;;;;;;;32.58;12.00;;;;;;;;;;5042347;28;20087;-72
2022/12/21 00:46:40;;;;;;;27.50;12.77;;;2.90;99.90;;;;;;5031651;28;20033;-72
2022/12/21 00:49:06;;;;;;;32.13;12.07;;;3.00;99.90;;;;;;5040012;28;20025;-72
2022/12/21 00:51:34;;;;;;;20.33;10.13;;;3.00;99.90;;;;;;5030924;28;20037;-72
2022/12/21 00:54:00;;;;;;;26.58;8.85;;;3.00;99.90;;;;;;5029371;28;20033;-71
2022/12/21 00:56:26;;;;;;;27.63;11.38;;;2.90;99.90;;;;;;5033759;28;20253;-73
2022/12/21 00:58:52;;;;;;;26.95;10.15;;;2.90;99.90;;;;;;5039683;28;20398;-72
2022/12/21 01:01:20;;;;;;;22.63;9.38;;;2.70;99.90;;;;;;5047927;28;20033;-72
2022/12/21 01:03:46;;;;;;;24.08;10.07;;;;;;;;;;5032306;28;20041;-73
2022/12/21 01:06:17;;;;;;;29.13;12.10;;;;;;;;;;5045680;28;20060;-70
2022/12/21 01:08:43;;;;;;;24.77;10.05;;;;;;;;;;5042910;28;20507;-72
2022/12/21 01:11:10;;;;;;;27.38;11.13;;;;;;;;;;5042444;28;20032;-72
2022/12/21 01:13:37;;;;;;;37.67;13.30;;;;;;;;;;5045324;28;20175;-72
2022/12/21 01:16:05;;;;;;;32.38;11.60;;;;;;;;;;5045709;28;20158;-72
2022/12/21 01:18:31;;;;;;;36.00;11.55;;;;;;;;;;5036375;28;20028;-72
2022/12/21 01:20:57;;;;;;;25.05;10.93;;;;;;;;;;5036471;28;20060;-72
2022/12/21 01:23:24;;;;;;;34.03;11.52;;;;;;;;;;5030039;28;20559;-72
2022/12/21 01:25:50;;;;;;;35.13;14.20;;;;;;;;;;5044983;28;20032;-72
2022/12/21 01:28:17;;;;;;;32.30;12.00;;;;;;;;;;5038599;28;20035;-72
2022/12/21 01:30:43;;;;;;;22.98;9.52;;;;;;;;;;5045319;28;20096;-72
2022/12/21 01:33:16;;;;;;;36.28;11.15;;;;;;;;;;5041537;28;20448;-71
2022/12/21 01:35:43;;;;;;;32.65;11.63;;;;;;;;;;5033439;28;20025;-72
2022/12/21 01:38:09;;;;;;;22.23;10.13;;;;;;;;;;5046797;28;20021;-72
2022/12/21 01:40:35;;;;;;;24.05;9.10;;;;;;;;;;5040005;28;20099;-72
2022/12/21 01:43:01;;;;;;;22.33;9.75;;;;;;;;;;5042171;28;20086;-73
2022/12/21 01:45:35;;;;;;;23.05;10.15;;;3.20;99.90;;;;;;5041365;28;20180;-72
2022/12/21 01:48:05;;;;;;;30.40;10.98;;;3.10;99.90;;;;;;5037354;28;20044;-73
2022/12/21 01:50:38;;;;;;;;;;;3.20;99.90;;;;;;5038866;28;20095;-72
2022/12/21 01:53:27;;;;;;;27.85;11.45;;;3.10;99.90;;;;;;5030346;28;19908;-72
2022/12/21 01:55:57;;;;;;;29.33;11.38;;;3.30;99.90;;;;;;5038201;28;20029;-72
2022/12/21 01:58:25;;;;;;;34.38;14.07;;;3.30;99.90;;;;;;5030174;28;20032;-72
2022/12/21 02:00:52;;;;;;;43.33;15.93;;;1.10;99.90;;;;;;5030717;28;20045;-72
2022/12/21 02:03:21;;;;;;;28.48;13.38;;;3.40;99.90;;;;;;5046041;28;20033;-72
2022/12/21 02:05:59;;;;;;;24.17;12.60;;;3.50;99.90;;;;;;5035318;28;20037;-73
2022/12/21 02:08:26;;;;;;;23.58;11.93;;;3.60;99.90;;;;;;5028138;28;20036;-73
2022/12/21 02:10:52;;;;;;;32.63;13.00;;;;;;;;;;5026534;28;20041;-72
2022/12/21 02:13:18;;;;;;;33.60;13.65;;;;;;;;;;5026517;28;20553;-73
2022/12/21 02:15:59;;;;;;;30.67;11.82;;;3.70;99.90;;;;;;5041244;28;20036;-72
2022/12/21 02:18:25;;;;;;;28.63;12.25;;;;;;;;;;5038893;28;20025;-71
2022/12/21 02:20:51;;;;;;;30.95;12.98;;;;;;;;;;5039295;28;20041;-72
2022/12/21 02:23:25;;;;;;;32.08;11.95;;;4.90;99.90;;;;;;5045827;28;20040;-74
2022/12/21 02:26:09;;;;;;;28.80;10.10;;;3.70;99.90;;;;;;5042243;28;20037;-72
2022/12/21 02:29:04;;;;;;;31.77;11.63;;;3.70;99.90;;;;;;5035599;28;20871;-73
2022/12/21 02:31:53;;;;;;;24.17;9.30;;;3.70;99.90;;;;;;5041324;28;20628;-71
2022/12/21 02:35:03;;;;;;;27.75;10.75;;;3.60;99.90;;;;;;5027177;28;20053;-73
2022/12/21 02:37:43;;;;;;;33.53;11.80;;;3.70;99.90;;;;;;5034022;28;20040;-72
2022/12/21 02:40:22;;;;;;;29.88;10.73;;;3.70;99.90;;;;;;5028326;28;20033;-73
2022/12/21 02:46:04;;;;;;;24.08;9.38;;;3.20;99.90;;;;;;5043781;28;20103;-73
2022/12/21 02:48:39;;;;;;;28.98;8.52;;;3.70;99.90;;;;;;5042082;28;20037;-72
2022/12/21 02:51:12;;;;;;;28.92;9.77;;;4.30;99.90;;;;;;5039356;28;20668;-73
2022/12/21 02:53:39;;;;;;;34.20;10.18;;;3.70;99.90;;;;;;5042058;28;20447;-73
2022/12/21 02:56:05;;;;;;;24.00;8.77;;;;;;;;;;5033503;28;20025;-70
2022/12/21 02:58:31;;;;;;;24.65;7.65;;;;;;;;;;5034072;28;20079;-72
2022/12/21 03:01:02;;;;;;;21.30;9.15;;;3.40;99.90;;;;;;5035792;28;20032;-72
2022/12/21 03:04:09;;;;;;;20.60;7.47;;;3.80;99.90;;;;;;5041213;28;20028;-70
2022/12/21 03:06:52;;;;;;;21.90;8.18;;;3.30;99.90;;;;;;5030390;28;20029;-70
2022/12/21 03:09:43;;;;;;;31.15;11.38;;;3.80;99.90;;;;;;5041162;28;20061;-72
2022/12/21 03:12:43;;;;;;;29.15;11.00;;;3.90;99.90;;;;;;5043530;28;20025;-73
2022/12/21 03:15:11;;;;;;;41.97;10.70;;;3.90;99.90;;;;;;5055785;28;20063;-73
2022/12/21 03:17:43;;;;;;;25.75;10.10;;;3.40;99.90;;;;;;5036721;28;20033;-73
2022/12/21 03:20:36;;;;;;;31.98;10.27;;;3.80;99.90;;;;;;5044646;28;20112;-71
2022/12/21 03:23:24;;;;;;;30.48;10.10;;;3.70;99.90;;;;;;5041045;28;20033;-71
2022/12/21 03:26:01;;;;;;;32.67;11.00;;;3.80;99.90;;;;;;5035234;28;20989;-71
2022/12/21 03:28:34;;;;;;;22.85;10.02;;;3.90;99.90;;;;;;5037725;28;20079;-73
2022/12/21 03:31:05;;;;;;;30.42;10.90;;;3.90;99.90;;;;;;5033802;28;20033;-71
2022/12/21 03:33:36;;;;;;;19.98;9.48;;;3.90;99.90;;;;;;5031557;28;20558;-72
2022/12/21 03:36:12;;;;;;;27.40;11.00;;;4.40;99.90;;;;;;5039693;28;20119;-73
2022/12/21 03:38:43;;;;;;;29.58;10.00;;;4.40;99.90;;;;;;5029560;28;20053;-73
2022/12/21 03:41:16;;;;;;;23.20;7.28;;;4.60;99.90;;;;;;5042816;28;20028;-71
2022/12/21 03:43:42;;;;;;;17.15;2.85;;;4.60;99.90;;;;;;5028867;28;20392;-72
2022/12/21 03:46:19;;;;;;;23.20;3.17;;;4.70;99.90;;;;;;5035431;28;20037;-73
2022/12/21 03:48:54;;;;;;;18.58;2.97;;;6.50;99.90;;;;;;5033797;28;20116;-73
2022/12/21 03:51:48;;;;;;;22.67;2.63;;;6.30;99.90;;;;;;5039711;28;20502;-71
2022/12/21 03:54:21;;;;;;;38.50;3.25;;;7.10;99.90;;;;;;5025252;28;20025;-70
2022/12/21 03:56:48;;;;;;;17.40;2.95;;;6.90;99.90;;;;;;5038205;28;20029;-73
2022/12/21 03:59:15;;;;;;;17.38;2.78;;;7.40;99.90;;;;;;5034945;28;20057;-70
2022/12/21 04:02:05;;;;;;;18.45;2.55;;;6.10;99.90;;;;;;5038629;28;20029;-71
2022/12/21 04:04:56;;;;;;;17.13;2.63;;;8.20;99.90;;;;;;5042762;28;20025;-72
2022/12/21 04:07:25;;;;;;;15.27;2.10;;;7.90;99.90;;;;;;5043840;28;20602;-71
2022/12/21 04:10:04;;;;;;;22.08;2.17;;;9.90;99.90;;;;;;5037419;28;20029;-72
2022/12/21 04:12:39;;;;;;;18.35;2.85;;;7.20;99.90;;;;;;5039113;28;20135;-71
2022/12/21 04:15:08;;;;;;;16.27;2.65;;;8.20;99.90;;;;;;5045156;28;20025;-72
2022/12/21 04:17:34;;;;;;;16.80;2.25;;;8.20;99.90;;;;;;5030407;28;20033;-72
2022/12/21 04:20:02;;;;;;;12.07;1.40;;;;;;;;;;5042513;28;20187;-72
2022/12/21 04:28:09;;;;;;;19.30;2.42;;;8.30;99.90;;;;;;5029580;28;20498;-72
2022/12/21 04:30:36;;;;;;;16.58;2.30;;;;;;;;;;5044523;28;20480;-73
2022/12/21 04:33:03;;;;;;;21.08;2.05;;;8.40;99.90;;;;;;5037611;28;20029;-70
2022/12/21 04:35:29;;;;;;;25.25;2.55;;;;;;;;;;5039923;28;20216;-70
2022/12/21 04:37:55;;;;;;;25.58;3.05;;;;;;;;;;5040689;28;20037;-73
2022/12/21 04:40:20;;;;;;;18.13;2.72;;;8.80;99.90;;;;;;5032377;28;20029;-73
2022/12/21 04:42:46;;;;;;;15.55;2.40;;;8.80;99.90;;;;;;5033383;28;20418;-72
2022/12/21 04:45:11;;;;;;;21.20;2.58;;;8.90;99.90;;;;;;5029671;28;20555;-71
2022/12/21 04:47:37;;;;;;;21.85;2.58;;;8.90;99.90;;;;;;5037936;28;20039;-73
2022/12/21 04:50:04;;;;;;;14.65;2.13;;;10.90;99.90;;;;;;5026075;28;20048;-71
2022/12/21 04:52:30;;;;;;;11.82;2.30;;;9.10;99.90;;;;;;5032743;28;20064;-72
2022/12/21 04:54:56;;;;;;;16.10;2.78;;;9.20;99.90;;;;;;5042713;28;20040;-72
2022/12/21 04:57:22;;;;;;;13.50;2.08;;;9.20;99.90;;;;;;5032407;28;20497;-72
2022/12/21 04:59:48;;;;;;;17.02;2.42;;;9.30;99.90;;;;;;5032473;28;20468;-72
2022/12/21 05:02:13;;;;;;;12.90;2.00;;;9.30;99.90;;;;;;5031898;28;20052;-70
2022/12/21 05:04:39;;;;;;;14.63;2.83;;;9.40;99.90;;;;;;5036432;28;20124;-71
2022/12/21 05:07:05;;;;;;;19.35;2.65;;;9.40;99.90;;;;;;5031102;28;20049;-70
2022/12/21 05:09:30;;;;;;;18.40;2.30;;;9.30;99.90;;;;;;5040391;28;20043;-70
2022/12/21 05:11:56;;;;;;;16.05;2.10;;;9.40;99.90;;;;;;5028419;28;20029;-73
2022/12/21 05:14:22;;;;;;;14.52;2.78;;;9.30;99.90;;;;;;5041224;28;20059;-72
2022/12/21 05:16:49;;;;;;;16.20;2.20;;;9.40;99.90;;;;;;5039925;28;20103;-72
2022/12/21 05:19:14;;;;;;;15.77;2.20;;;9.30;99.90;;;;;;5044334;28;20079;-72
2022/12/21 05:21:40;;;;;;;15.00;2.10;;;9.30;99.90;;;;;;5042249;28;20045;-72
2022/12/21 05:24:06;;;;;;;17.73;2.60;;;9.40;99.90;;;;;;5038494;28;20030;-71
2022/12/21 05:26:32;;;;;;;19.40;2.90;;;9.40;99.90;;;;;;5034398;28;20438;-71
2022/12/21 05:28:57;;;;;;;14.90;1.80;;;9.40;99.90;;;;;;5035996;28;20056;-72
2022/12/21 05:31:23;;;;;;;15.77;1.90;;;9.40;99.90;;;;;;5030207;28;20479;-72
2022/12/21 05:33:49;;;;;;;17.48;1.92;;;9.40;99.90;;;;;;5040646;28;20091;-70
2022/12/21 05:36:16;;;;;;;20.75;3.63;;;9.40;99.90;;;;;;5038020;28;20074;-71
2022/12/21 05:38:42;;;;;;;17.02;2.15;;;9.40;99.90;;;;;;5036581;28;20035;-70
2022/12/21 05:41:09;;;;;;;11.55;2.05;;;9.40;99.90;;;;;;5024603;28;20407;-71
2022/12/21 05:43:35;;;;;;;13.73;1.90;;;9.40;99.90;;;;;;5041727;28;20112;-72
2022/12/21 05:46:05;;;;;;;15.52;1.85;;;9.40;99.90;;;;;;5036670;28;20041;-70
2022/12/21 05:48:31;;;;;;;15.80;1.75;;;9.30;99.90;;;;;;5042675;28;20032;-71
2022/12/21 05:50:57;;;;;;;15.25;2.42;;;9.30;99.90;;;;;;5039890;28;20120;-72
2022/12/21 05:53:22;;;;;;;15.65;2.25;;;9.30;99.90;;;;;;5040782;28;20467;-72
2022/12/21 05:55:48;;;;;;;14.30;2.20;;;9.20;99.90;;;;;;5043284;28;20013;-73
2022/12/21 05:58:14;;;;;;;12.07;2.05;;;9.20;99.90;;;;;;5036235;28;20029;-71
2022/12/21 06:00:40;;;;;;;14.80;1.60;;;9.20;99.90;;;;;;5038499;28;20017;-72
2022/12/21 06:03:06;;;;;;;16.55;2.30;;;9.10;99.90;;;;;;5035240;28;20506;-71
2022/12/21 06:05:36;;;;;;;12.57;2.08;;;9.00;99.90;;;;;;5035289;28;20063;-72
2022/12/21 06:08:02;;;;;;;15.05;2.00;;;9.00;99.90;;;;;;5036392;28;20032;-72
2022/12/21 06:10:28;;;;;;;13.27;2.28;;;8.90;99.90;;;;;;5030564;28;20063;-71
2022/12/21 06:12:53;;;;;;;18.25;2.55;;;8.90;99.90;;;;;;5044417;28;20124;-72
2022/12/21 06:15:19;;;;;;;11.68;2.35;;;8.90;99.90;;;;;;5045543;28;20021;-72
2022/12/21 06:17:45;;;;;;;11.52;2.28;;;8.90;99.90;;;;;;5040459;28;20029;-71
2022/12/21 06:20:11;;;;;;;12.48;1.83;;;8.90;99.90;;;;;;5030302;28;20096;-73
2022/12/21 06:22:36;;;;;;;15.50;2.20;;;8.90;99.90;;;;;;5033421;28;20068;-72
2022/12/21 06:25:03;;;;;;;16.45;1.92;;;9.00;99.90;;;;;;5046829;28;20099;-72
2022/12/21 06:27:29;;;;;;;13.23;2.38;;;9.10;99.90;;;;;;5048548;28;20024;-72
2022/12/21 06:29:54;;;;;;;20.40;2.30;;;9.10;99.90;;;;;;5053654;28;20029;-71
2022/12/21 06:32:20;;;;;;;18.42;2.30;;;9.10;99.90;;;;;;5046543;28;20786;-72
2022/12/21 06:34:45;;;;;;;14.93;2.13;;;9.20;99.90;;;;;;5042396;28;20116;-73
2022/12/21 06:37:11;;;;;;;17.27;2.80;;;9.20;99.90;;;;;;5033480;28;20132;-72
2022/12/21 06:39:36;;;;;;;12.15;1.98;;;9.20;99.90;;;;;;5040973;28;20033;-71
2022/12/21 06:42:03;;;;;;;13.88;2.30;;;9.20;99.90;;;;;;5039440;28;20137;-71
2022/12/21 06:44:28;;;;;;;14.60;2.33;;;9.20;99.90;;;;;;5030404;28;20029;-72
2022/12/21 06:46:54;;;;;;;15.65;2.80;;;9.20;99.90;;;;;;5037056;28;20059;-73
2022/12/21 06:49:19;;;;;;;16.05;2.40;;;9.20;99.90;;;;;;5031331;28;20108;-72
2022/12/21 06:51:45;;;;;;;18.33;2.58;;;9.20;99.90;;;;;;5046402;28;20031;-72
2022/12/21 06:54:11;;;;;;;17.45;2.90;;;9.20;99.90;;;;;;5051420;28;20029;-72
2022/12/21 06:56:37;;;;;;;14.70;2.42;;;9.20;99.90;;;;;;5045405;28;20036;-72
2022/12/21 06:59:02;;;;;;;16.13;1.95;;;9.20;99.90;;;;;;5038919;28;20487;-72
2022/12/21 07:01:32;;;;;;;10.13;1.88;;;9.20;99.90;;;;;;5043558;28;20055;-71
2022/12/21 07:03:58;;;;;;;11.20;1.98;;;9.20;99.90;;;;;;5046209;28;20445;-71
2022/12/21 07:06:25;;;;;;;15.98;2.58;;;9.20;99.90;;;;;;5036957;28;20099;-70
2022/12/21 07:08:51;;;;;;;18.10;2.67;;;9.20;99.90;;;;;;5037559;28;20021;-71
2022/12/21 07:11:20;;;;;;;19.13;2.40;;;9.30;99.90;;;;;;5045768;28;20086;-72
2022/12/21 07:13:46;;;;;;;17.63;2.72;;;9.30;99.90;;;;;;5046357;28;20423;-70
2022/12/21 07:16:14;;;;;;;19.70;2.70;;;9.30;99.90;;;;;;5047384;28;20033;-73
2022/12/21 07:18:40;;;;;;;15.70;2.20;;;9.40;99.90;;;;;;5045814;28;20094;-72
2022/12/21 07:21:08;;;;;;;18.77;2.60;;;9.50;99.90;;;;;;5043919;28;20040;-71
2022/12/21 07:23:36;;;;;;;14.57;2.92;;;9.50;99.90;;;;;;5040359;28;20522;-71
2022/12/21 07:26:06;;;;;;;19.45;2.50;;;9.50;99.90;;;;;;5041072;28;20033;-73
2022/12/21 07:28:31;;;;;;;;;;;9.50;99.90;;;;;;5040353;28;20037;-70
2022/12/21 07:31:07;;;;;;;16.65;2.55;;;9.60;99.90;;;;;;5044258;28;19913;-72
2022/12/21 07:33:34;;;;;;;17.38;2.67;;;9.60;99.90;;;;;;5041255;28;20029;-74
2022/12/21 07:36:01;;;;;;;13.15;1.90;;;9.60;99.90;;;;;;5036006;28;20177;-70
2022/12/21 07:38:28;;;;;;;16.67;2.50;;;9.70;99.90;;;;;;5044216;28;20021;-70
2022/12/21 07:40:57;;;;;;;17.63;2.95;;;9.70;99.90;;;;;;5042286;28;20614;-72
2022/12/21 07:43:24;;;;;;;13.70;2.22;;;9.70;99.90;;;;;;5047982;28;20040;-72
2022/12/21 07:45:50;;;;;;;14.57;2.40;;;9.70;99.90;;;;;;5038259;28;20040;-72
2022/12/21 07:48:16;;;;;;;13.70;2.65;;;9.80;99.90;;;;;;5040100;28;20029;-71
2022/12/21 07:50:41;;;;;;;16.95;3.58;;;9.90;99.90;;;;;;5039529;28;20033;-72
2022/12/21 07:53:07;;;;;;;15.55;3.05;;;9.90;99.90;;;;;;5048246;28;20037;-72
2022/12/21 07:55:33;;;;;;;16.17;2.60;;;10.00;99.90;;;;;;5038972;28;20372;-71
2022/12/21 07:57:59;;;;;;;11.23;2.35;;;10.00;99.90;;;;;;5027157;28;20029;-71
2022/12/21 08:00:25;;;;;;;10.48;2.25;;;10.00;99.90;;;;;;5037401;28;20025;-72
2022/12/21 08:02:50;;;;;;;22.90;2.60;;;10.00;99.90;;;;;;5031195;28;20046;-71
2022/12/21 08:05:18;;;;;;;10.23;2.05;;;10.00;99.90;;;;;;5035194;28;20032;-72
2022/12/21 08:07:44;;;;;;;9.32;1.70;;;10.00;99.90;;;;;;5038424;28;20037;-72
2022/12/21 08:10:09;;;;;;;12.10;1.60;;;10.10;99.90;;;;;;5036696;28;20082;-73
2022/12/21 08:12:35;;;;;;;13.75;2.55;;;10.00;99.90;;;;;;5033949;28;20068;-72
2022/12/21 08:15:01;;;;;;;18.88;2.38;;;10.10;99.90;;;;;;5033487;28;20064;-71
2022/12/21 08:17:26;;;;;;;19.35;2.53;;;10.00;99.90;;;;;;5031805;28;20490;-70
2022/12/21 08:19:52;;;;;;;13.70;2.13;;;10.10;99.90;;;;;;5054199;28;20033;-73
2022/12/21 08:22:18;;;;;;;13.85;2.25;;;10.10;99.90;;;;;;5028551;28;20037;-72
2022/12/21 08:24:43;;;;;;;15.73;1.92;;;10.10;99.90;;;;;;5037670;28;20044;-70
2022/12/21 08:27:10;;;;;;;24.55;3.05;;;10.20;99.90;;;;;;5032872;28;20053;-72
2022/12/21 08:29:36;;;;;;;13.30;2.00;;;10.20;99.90;;;;;;5031100;28;20033;-73
2022/12/21 08:32:03;;;;;;;11.73;2.17;;;10.30;99.90;;;;;;5030888;28;20037;-72
2022/12/21 08:34:29;;;;;;;10.70;2.28;;;10.30;99.90;;;;;;5027610;28;20026;-73
2022/12/21 08:36:55;;;;;;;18.20;2.88;;;10.30;99.90;;;;;;5031273;28;20033;-73
2022/12/21 08:39:21;;;;;;;17.45;2.42;;;10.30;99.90;;;;;;5031771;28;20029;-72
2022/12/21 08:41:46;;;;;;;17.27;2.03;;;10.30;99.90;;;;;;5035687;28;20075;-74
2022/12/21 08:44:12;;;;;;;14.30;2.35;;;10.30;99.90;;;;;;5033070;28;20808;-74
2022/12/21 08:46:37;;;;;;;12.55;1.95;;;10.30;99.90;;;;;;5036918;28;20021;-75
2022/12/21 08:49:03;;;;;;;18.50;2.40;;;10.30;99.90;;;;;;5034476;28;20167;-75
2022/12/21 08:51:29;;;;;;;12.55;2.17;;;10.30;99.90;;;;;;5038776;28;20033;-76
2022/12/21 08:53:55;;;;;;;13.00;2.58;;;10.30;99.90;;;;;;5038492;28;20445;-73
2022/12/21 08:56:21;;;;;;;15.65;2.70;;;10.40;99.90;;;;;;5033864;28;20131;-73
2022/12/21 08:58:47;;;;;;;18.10;2.53;;;10.40;99.90;;;;;;5033116;28;20030;-74
2022/12/21 09:01:17;;;;;;;16.27;2.83;;;10.40;99.90;;;;;;5034767;28;20037;-73
2022/12/21 09:03:42;;;;;;;13.80;2.13;;;10.40;99.90;;;;;;5040532;28;20061;-73
2022/12/21 09:06:08;;;;;;;12.88;2.83;;;10.40;99.90;;;;;;5036285;28;20124;-73
2022/12/21 09:08:34;;;;;;;17.95;1.83;;;10.40;99.90;;;;;;5033155;28;20098;-73
2022/12/21 09:11:12;;;;;;;16.83;2.35;;;10.50;99.90;;;;;;5031373;28;20061;-73
2022/12/21 09:13:38;;;;;;;17.42;2.08;;;10.50;99.90;;;;;;5033700;28;20037;-75
2022/12/21 09:16:15;;;;;;;11.93;1.80;;;10.70;99.90;;;;;;5031600;28;20041;-75
2022/12/21 09:18:41;;;;;;;14.45;2.30;;;10.60;99.90;;;;;;5040079;28;20083;-75
2022/12/21 09:21:06;;;;;;;17.02;2.40;;;10.60;99.90;;;;;;5037748;28;20029;-75
2022/12/21 09:23:32;;;;;;;18.35;2.28;;;10.60;99.90;;;;;;5038690;28;20115;-74
2022/12/21 09:25:58;;;;;;;10.02;1.60;;;10.60;99.90;;;;;;5038021;28;20047;-72
2022/12/21 09:28:24;;;;;;;15.82;2.53;;;10.70;99.90;;;;;;5039641;28;20029;-74
2022/12/21 09:30:49;;;;;;;15.23;2.30;;;10.60;99.90;;;;;;5035411;28;20386;-73
2022/12/21 09:33:15;;;;;;;13.98;2.22;;;10.70;99.90;;;;;;5038766;28;20033;-73
2022/12/21 09:35:41;;;;;;;14.30;2.35;;;10.70;99.90;;;;;;5039765;28;20031;-73
2022/12/21 09:38:06;;;;;;;16.17;2.50;;;10.60;99.90;;;;;;5041328;28;20095;-73
2022/12/21 09:40:33;;;;;;;15.68;2.83;;;10.60;99.90;;;;;;5039608;28;20365;-75
2022/12/21 09:43:24;;;;;;;12.38;2.03;;;10.70;99.90;;;;;;5034357;28;20044;-72
2022/12/21 09:46:07;;;;;;;13.77;2.53;;;10.50;99.90;;;;;;5052413;28;20061;-73
2022/12/21 09:48:39;;;;;;;7.90;1.52;;;10.60;99.90;;;;;;5039887;28;20064;-73
2022/12/21 09:51:20;;;;;;;18.95;3.05;;;11.10;99.90;;;;;;5031348;28;20083;-74
2022/12/21 09:53:46;;;;;;;33.75;3.58;;;;;;;;;;5029580;28;20036;-73
2022/12/21 09:56:16;;;;;;;16.13;1.98;;;10.80;99.90;;;;;;5035667;28;20576;-73
2022/12/21 09:58:45;;;;;;;18.63;2.22;;;10.80;99.90;;;;;;5042854;28;20081;-75
2022/12/21 10:01:42;;;;;;;21.17;3.25;;;10.70;99.90;;;;;;5046016;28;20021;-73
2022/12/21 10:04:23;;;;;;;10.68;2.15;;;10.90;99.90;;;;;;5046691;28;20041;-72
2022/12/21 10:07:22;;;;;;;13.98;2.00;;;11.00;99.90;;;;;;5042881;28;20033;-71
2022/12/21 10:09:53;;;;;;;12.07;1.97;;;11.40;99.90;;;;;;5043565;28;20547;-74
2022/12/21 10:12:24;;;;;;;10.90;2.10;;;10.10;99.90;;;;;;5037501;28;20060;-73
2022/12/21 10:15:09;;;;;;;13.95;2.40;;;10.70;99.90;;;;;;5046551;28;20063;-74
2022/12/21 10:18:12;;;;;;;12.70;2.05;;;10.80;99.90;;;;;;5039340;28;20033;-71
2022/12/21 10:20:56;;;;;;;15.80;2.55;;;11.20;99.90;;;;;;5031756;28;20068;-73
2022/12/21 10:23:35;;;;;;;13.98;2.05;;;11.30;99.90;;;;;;5045701;28;20033;-73
2022/12/21 10:26:04;;;;;;;16.65;2.75;;;11.60;99.90;;;;;;5031336;28;20039;-75
2022/12/21 10:28:47;;;;;;;13.40;3.33;;;11.40;99.90;;;;;;5034038;28;20036;-74
2022/12/21 10:31:24;;;;;;;18.40;2.67;;;11.50;99.90;;;;;;5041963;28;20028;-71
2022/12/21 10:33:51;;;;;;;13.13;2.30;;;11.80;99.90;;;;;;5040798;28;20029;-71
2022/12/21 10:36:20;;;;;;;11.45;2.22;;;10.20;99.90;;;;;;5043175;28;20391;-74
2022/12/21 10:38:46;;;;;;;10.02;1.80;;;;;;;;;;5040115;28;20040;-72
2022/12/21 10:41:27;;;;;;;13.68;2.03;;;10.40;99.90;;;;;;5035573;28;20029;-72
2022/12/21 10:43:56;;;;;;;13.25;2.03;;;11.30;99.90;;;;;;5037897;28;20044;-70
2022/12/21 10:46:28;;;;;;;8.30;1.77;;;11.30;99.90;;;;;;5040170;28;20393;-72
2022/12/21 10:49:00;;;;;;;12.70;1.90;;;11.30;99.90;;;;;;5033067;28;20463;-72
2022/12/21 10:51:32;;;;;;;12.38;2.15;;;12.70;99.90;;;;;;5045267;28;20013;-75
2022/12/21 10:54:09;;;;;;;17.92;2.13;;;11.10;99.90;;;;;;5047424;28;20032;-74
2022/12/21 10:56:45;;;;;;;13.15;1.98;;;11.10;99.90;;;;;;5047972;28;20091;-72
2022/12/21 10:59:27;;;;;;;13.43;2.97;;;12.50;99.90;;;;;;5031736;28;20029;-73
2022/12/21 11:01:53;;;;;;;13.55;1.85;;;12.40;99.90;;;;;;5038158;28;20087;-73
2022/12/21 11:04:21;;;;;;;16.75;3.35;;;11.20;99.90;;;;;;5031074;28;20434;-74
2022/12/21 11:07:01;;;;;;;14.50;2.40;;;8.80;99.90;;;;;;5036816;28;20033;-73
2022/12/21 11:09:33;;;;;;;10.50;1.83;;;11.30;99.90;;;;;;5038634;28;20530;-73
2022/12/21 11:12:19;;;;;;;9.90;2.05;;;11.40;99.90;;;;;;5032213;28;20431;-74
2022/12/21 11:14:45;;;;;;;22.40;2.60;;;;;;;;;;5042207;28;20044;-72
2022/12/21 11:17:23;;;;;;;29.05;3.45;;;11.40;99.90;;;;;;5044664;28;20777;-74
2022/12/21 11:20:04;;;;;;;10.85;1.63;;;11.30;99.90;;;;;;5046986;28;20467;-73
2022/12/21 11:22:31;;;;;;;11.52;1.50;;;11.40;99.90;;;;;;5045643;28;20033;-74
2022/12/21 11:24:59;;;;;;;10.15;1.38;;;11.40;99.90;;;;;;5030238;28;20095;-73
2022/12/21 11:27:29;;;;;;;10.65;1.90;;;11.40;99.90;;;;;;5026835;28;20055;-71
2022/12/21 11:29:59;;;;;;;12.70;2.10;;;11.40;99.90;;;;;;5025761;28;20033;-73
2022/12/21 11:32:28;;;;;;;15.35;2.42;;;11.40;99.90;;;;;;5028232;28;20033;-71
2022/12/21 11:34:58;;;;;;;10.25;1.83;;;11.40;99.90;;;;;;5040681;28;20621;-74
2022/12/21 11:37:36;;;;;;;10.77;2.10;;;11.30;99.90;;;;;;5042222;28;20025;-74
2022/12/21 11:40:11;;;;;;;7.00;2.00;;;11.20;99.90;;;;;;5046224;28;20029;-73
2022/12/21 11:42:50;;;;;;;12.88;1.73;;;11.30;99.90;;;;;;5045639;28;20034;-74
2022/12/21 11:45:17;;;;;;;10.93;1.83;;;;;;;;;;5044308;28;20040;-74
2022/12/21 11:48:05;;;;;;;7.82;1.88;;;11.30;99.90;;;;;;5045236;28;20021;-74
2022/12/21 11:50:41;;;;;;;8.30;1.55;;;11.40;99.90;;;;;;5046637;28;20025;-74
2022/12/21 11:53:36;;;;;;;8.40;1.73;;;12.30;99.90;;;;;;5042029;28;20032;-75
2022/12/21 11:56:33;;;;;;;8.20;1.50;;;11.40;99.90;;;;;;5037941;28;20041;-75
2022/12/21 11:59:23;;;;;;;8.85;1.55;;;11.40;99.90;;;;;;5046515;28;20097;-73
2022/12/21 12:02:01;;;;;;;7.25;1.10;;;11.40;99.90;;;;;;5045411;28;20153;-72
2022/12/21 12:04:27;;;;;;;12.07;1.40;;;;;;;;;;5031933;28;20041;-73
2022/12/21 12:06:53;;;;;;;7.45;1.17;;;;;;;;;;5026743;28;20067;-76
2022/12/21 12:09:48;;;;;;;6.97;1.15;;;11.50;99.90;;;;;;5042869;28;20025;-72
2022/12/21 12:12:22;;;;;;;7.75;1.10;;;10.90;99.90;;;;;;5030896;28;20017;-75
2022/12/21 12:15:17;;;;;;;8.45;1.17;;;11.50;99.90;;;;;;5037803;28;20127;-72
2022/12/21 12:18:06;;;;;;;5.47;1.42;;;11.50;99.90;;;;;;5025891;28;20664;-74
2022/12/21 12:21:15;;;;;;;7.07;1.30;;;11.60;99.90;;;;;;5032159;28;20047;-75
2022/12/21 12:23:58;;;;;;;7.75;1.52;;;11.60;99.90;;;;;;5043878;28;20095;-74
2022/12/21 12:27:11;;;;;;;5.50;1.65;;;11.40;99.90;;;;;;5057218;28;20030;-73
2022/12/21 12:29:52;;;;;;;10.02;2.35;;;11.50;99.90;;;;;;5054781;28;20112;-73
2022/12/21 12:33:03;;;;;;;6.13;1.48;;;11.70;99.90;;;;;;5026775;28;20049;-74
2022/12/21 12:36:21;;;;;;;6.68;1.48;;;11.70;99.90;;;;;;5025057;28;20053;-74
2022/12/21 12:39:09;;;;;;;10.43;1.08;;;11.80;99.90;;;;;;5012023;28;20057;-75
2022/12/21 12:42:07;;;;;;;4.38;1.00;;;11.60;99.90;;;;;;5026082;28;20488;-74
2022/12/21 12:44:41;;;;;;;4.47;0.80;;;12.90;99.90;;;;;;4989357;28;20604;-75
2022/12/21 12:47:45;;;;;;;6.70;0.90;;;11.70;99.90;;;;;;5026217;28;20044;-73
2022/12/21 12:50:11;;;;;;;8.13;0.90;;;;;;;;;;5025466;28;20037;-74
2022/12/21 12:53:24;;;;;;;8.60;1.45;;;11.70;99.90;;;;;;5028393;28;20033;-75
2022/12/21 12:56:07;;;;;;;3.13;1.40;;;11.70;99.90;;;;;;5007960;28;20077;-74
2022/12/21 12:58:41;;;;;;;5.53;0.90;;;12.40;99.90;;;;;;5046543;28;20087;-75
2022/12/21 13:01:07;;;;;;;9.98;1.40;;;;;;;;;;5038837;28;20065;-74
2022/12/21 13:03:55;;;;;;;10.38;1.20;;;13.10;99.90;;;;;;5030051;28;20092;-74
2022/12/21 13:06:48;;;;;;;6.72;1.60;;;11.70;99.90;;;;;;5029475;28;20123;-73
2022/12/21 13:09:37;;;;;;;5.60;1.42;;;11.70;99.90;;;;;;5028188;28;20036;-73
2022/12/21 13:12:19;;;;;;;6.75;1.63;;;11.70;99.90;;;;;;5029970;28;20128;-73
2022/12/21 13:14:59;;;;;;;4.75;1.55;;;11.70;99.90;;;;;;5043610;28;20071;-73
2022/12/21 13:17:39;;;;;;;4.05;0.70;;;11.70;99.90;;;;;;5037817;28;20029;-75
2022/12/21 13:20:08;;;;;;;5.20;0.60;;;11.70;99.90;;;;;;5033218;28;20029;-73
2022/12/21 13:22:36;;;;;;;4.80;0.80;;;11.60;99.90;;;;;;5027962;28;20037;-74
2022/12/21 13:25:20;;;;;;;4.68;0.90;;;11.40;99.90;;;;;;5029961;28;20185;-73
2022/12/21 13:27:48;;;;;;;5.30;0.77;;;11.50;99.90;;;;;;5029976;28;20033;-74
2022/12/21 13:30:17;;;;;;;2.72;0.80;;;11.50;99.90;;;;;;5033983;28;20108;-74